sensor_id;sensor_type;location;lat;lon;timestamp;pressure;altitude;pressure_sealevel;temperature;humidity
11936;BME280;6027;48.576;9.180;2023-02-21T00:02:38;97375.50;;;6.18;72.22
11936;BME280;6027;48.576;9.180;2023-02-21T00:05:23;97373.25;;;6.23;71.56
11936;BME280;6027;48.576;9.180;2023-02-21T00:08:07;97373.53;;;6.20;71.58
11936;BME280;6027;48.576;9.180;2023-02-21T00:10:51;97363.03;;;6.20;71.80
11936;BME280;6027;48.576;9.180;2023-02-21T00:13:36;97364.97;;;6.18;72.28
11936;BME280;6027;48.576;9.180;2023-02-21T00:16:20;97362.78;;;6.13;71.74
11936;BME280;6027;48.576;9.180;2023-02-21T00:19:04;97363.50;;;6.06;72.26
11936;BME280;6027;48.576;9.180;2023-02-21T00:21:48;97358.09;;;6.07;72.55
11936;BME280;6027;48.576;9.180;2023-02-21T00:24:32;97354.25;;;5.92;73.43
11936;BME280;6027;48.576;9.180;2023-02-21T00:27:16;97350.13;;;5.89;73.71
11936;BME280;6027;48.576;9.180;2023-02-21T00:30:00;97359.66;;;5.91;73.52
11936;BME280;6027;48.576;9.180;2023-02-21T00:32:44;97348.97;;;5.82;74.24
11936;BME280;6027;48.576;9.180;2023-02-21T00:35:28;97353.97;;;5.76;74.68
11936;BME280;6027;48.576;9.180;2023-02-21T00:38:12;97354.41;;;5.71;75.20
11936;BME280;6027;48.576;9.180;2023-02-21T00:40:56;97350.38;;;5.77;74.37
11936;BME280;6027;48.576;9.180;2023-02-21T00:43:40;97344.03;;;5.70;74.60
11936;BME280;6027;48.576;9.180;2023-02-21T00:46:25;97352.31;;;5.65;75.31
11936;BME280;6027;48.576;9.180;2023-02-21T00:49:09;97348.59;;;5.58;75.69
11936;BME280;6027;48.576;9.180;2023-02-21T00:51:53;97340.31;;;5.53;75.48
11936;BME280;6027;48.576;9.180;2023-02-21T00:54:37;97338.91;;;5.59;75.53
11936;BME280;6027;48.576;9.180;2023-02-21T00:57:10;97343.34;;;5.58;75.62
11936;BME280;6027;48.576;9.180;2023-02-21T00:59:54;97340.69;;;5.58;76.31
11936;BME280;6027;48.576;9.180;2023-02-21T01:02:38;97342.53;;;5.58;76.58
11936;BME280;6027;48.576;9.180;2023-02-21T01:05:22;97346.97;;;5.57;75.41
11936;BME280;6027;48.576;9.180;2023-02-21T01:08:06;97337.97;;;5.50;75.79
11936;BME280;6027;48.576;9.180;2023-02-21T01:10:50;97334.94;;;5.54;75.07
11936;BME280;6027;48.576;9.180;2023-02-21T01:13:34;97339.19;;;5.46;75.56
11936;BME280;6027;48.576;9.180;2023-02-21T01:16:18;97335.47;;;5.48;75.79
11936;BME280;6027;48.576;9.180;2023-02-21T01:19:02;97344.03;;;5.31;76.62
11936;BME280;6027;48.576;9.180;2023-02-21T01:21:46;97336.88;;;5.33;76.40
11936;BME280;6027;48.576;9.180;2023-02-21T01:24:31;97341.16;;;5.34;76.89
11936;BME280;6027;48.576;9.180;2023-02-21T01:27:14;97344.75;;;5.33;76.65
11936;BME280;6027;48.576;9.180;2023-02-21T01:29:58;97341.25;;;5.23;77.58
11936;BME280;6027;48.576;9.180;2023-02-21T01:32:42;97332.28;;;5.26;77.09
11936;BME280;6027;48.576;9.180;2023-02-21T01:35:26;97334.38;;;5.32;76.56
11936;BME280;6027;48.576;9.180;2023-02-21T01:38:10;97336.84;;;5.24;76.44
11936;BME280;6027;48.576;9.180;2023-02-21T01:40:54;97331.34;;;5.17;76.75
11936;BME280;6027;48.576;9.180;2023-02-21T01:43:56;97329.66;;;5.06;77.93
11936;BME280;6027;48.576;9.180;2023-02-21T01:46:40;97335.75;;;4.97;79.19
11936;BME280;6027;48.576;9.180;2023-02-21T01:49:24;97332.66;;;4.82;79.77
11936;BME280;6027;48.576;9.180;2023-02-21T01:52:08;97324.94;;;4.81;80.79
11936;BME280;6027;48.576;9.180;2023-02-21T01:54:53;97324.78;;;4.82;80.69
11936;BME280;6027;48.576;9.180;2023-02-21T01:57:39;97325.47;;;4.84;80.68
11936;BME280;6027;48.576;9.180;2023-02-21T02:00:24;97321.16;;;4.64;81.18
11936;BME280;6027;48.576;9.180;2023-02-21T02:03:11;97313.03;;;4.67;81.92
11936;BME280;6027;48.576;9.180;2023-02-21T02:06:03;97323.91;;;4.63;81.92
11936;BME280;6027;48.576;9.180;2023-02-21T02:08:48;97322.69;;;4.67;82.13
11936;BME280;6027;48.576;9.180;2023-02-21T02:12:04;97310.41;;;4.58;82.42
11936;BME280;6027;48.576;9.180;2023-02-21T02:28:41;97306.00;;;4.18;83.46
11936;BME280;6027;48.576;9.180;2023-02-21T02:31:35;97318.91;;;4.10;84.31
11936;BME280;6027;48.576;9.180;2023-02-21T02:45:29;97302.81;;;3.22;90.38
11936;BME280;6027;48.576;9.180;2023-02-21T02:48:27;97297.47;;;3.12;91.65
11936;BME280;6027;48.576;9.180;2023-02-21T02:50:50;97296.28;;;3.16;91.23
11936;BME280;6027;48.576;9.180;2023-02-21T02:53:20;97298.69;;;3.08;91.99
11936;BME280;6027;48.576;9.180;2023-02-21T02:56:07;97298.84;;;3.06;92.70
11936;BME280;6027;48.576;9.180;2023-02-21T02:58:42;97287.72;;;3.14;92.02
11936;BME280;6027;48.576;9.180;2023-02-21T03:01:36;97285.66;;;2.97;93.10
11936;BME280;6027;48.576;9.180;2023-02-21T03:09:19;97293.69;;;2.84;93.92
11936;BME280;6027;48.576;9.180;2023-02-21T03:12:04;97285.50;;;2.77;94.72
11936;BME280;6027;48.576;9.180;2023-02-21T03:14:59;97286.91;;;2.82;94.99
11936;BME280;6027;48.576;9.180;2023-02-21T03:17:27;97292.47;;;2.88;95.54
11936;BME280;6027;48.576;9.180;2023-02-21T03:19:56;97295.41;;;2.95;94.87
11936;BME280;6027;48.576;9.180;2023-02-21T03:22:25;97292.78;;;2.95;95.09
11936;BME280;6027;48.576;9.180;2023-02-21T03:24:55;97291.94;;;3.05;94.82
11936;BME280;6027;48.576;9.180;2023-02-21T03:27:22;97285.16;;;3.03;94.47
11936;BME280;6027;48.576;9.180;2023-02-21T03:29:49;97290.44;;;2.92;95.99
11936;BME280;6027;48.576;9.180;2023-02-21T03:32:46;97284.06;;;2.85;96.62
11936;BME280;6027;48.576;9.180;2023-02-21T03:35:13;97282.81;;;2.89;96.39
11936;BME280;6027;48.576;9.180;2023-02-21T03:37:50;97281.44;;;2.85;97.38
11936;BME280;6027;48.576;9.180;2023-02-21T03:40:25;97283.66;;;2.89;96.78
11936;BME280;6027;48.576;9.180;2023-02-21T03:42:52;97279.78;;;2.84;97.35
11936;BME280;6027;48.576;9.180;2023-02-21T03:45:18;97276.69;;;2.78;97.64
11936;BME280;6027;48.576;9.180;2023-02-21T03:47:43;97271.81;;;2.85;97.48
11936;BME280;6027;48.576;9.180;2023-02-21T03:50:09;97277.03;;;2.85;97.35
11936;BME280;6027;48.576;9.180;2023-02-21T03:52:35;97280.91;;;2.91;97.97
11936;BME280;6027;48.576;9.180;2023-02-21T03:55:01;97283.50;;;3.02;96.19
11936;BME280;6027;48.576;9.180;2023-02-21T03:57:27;97279.47;;;2.98;96.48
11936;BME280;6027;48.576;9.180;2023-02-21T03:59:52;97275.97;;;3.08;95.55
11936;BME280;6027;48.576;9.180;2023-02-21T04:02:18;97277.19;;;3.04;95.37
11936;BME280;6027;48.576;9.180;2023-02-21T04:04:44;97281.66;;;3.13;95.14
11936;BME280;6027;48.576;9.180;2023-02-21T04:07:10;97274.28;;;3.19;94.93
11936;BME280;6027;48.576;9.180;2023-02-21T04:09:35;97275.44;;;3.26;92.62
11936;BME280;6027;48.576;9.180;2023-02-21T04:12:03;97275.69;;;3.23;92.42
11936;BME280;6027;48.576;9.180;2023-02-21T04:14:29;97275.34;;;3.16;93.06
11936;BME280;6027;48.576;9.180;2023-02-21T04:16:54;97270.94;;;3.17;93.70
11936;BME280;6027;48.576;9.180;2023-02-21T04:19:20;97274.34;;;3.07;94.40
11936;BME280;6027;48.576;9.180;2023-02-21T04:21:45;97268.00;;;3.10;93.10
11936;BME280;6027;48.576;9.180;2023-02-21T04:24:10;97266.53;;;3.17;91.88
11936;BME280;6027;48.576;9.180;2023-02-21T04:26:36;97274.75;;;3.12;92.44
11936;BME280;6027;48.576;9.180;2023-02-21T04:29:02;97281.41;;;3.17;92.74
11936;BME280;6027;48.576;9.180;2023-02-21T04:31:27;97277.38;;;3.12;91.58
11936;BME280;6027;48.576;9.180;2023-02-21T04:33:53;97272.16;;;3.12;91.58
11936;BME280;6027;48.576;9.180;2023-02-21T04:36:18;97270.19;;;3.05;92.03
11936;BME280;6027;48.576;9.180;2023-02-21T04:38:44;97274.25;;;2.98;93.60
11936;BME280;6027;48.576;9.180;2023-02-21T04:41:10;97278.56;;;2.88;94.19
11936;BME280;6027;48.576;9.180;2023-02-21T04:43:35;97287.88;;;2.69;96.02
11936;BME280;6027;48.576;9.180;2023-02-21T04:46:01;97282.34;;;2.63;96.26
11936;BME280;6027;48.576;9.180;2023-02-21T04:48:26;97278.53;;;2.56;96.59
11936;BME280;6027;48.576;9.180;2023-02-21T04:50:52;97280.44;;;2.54;97.15
11936;BME280;6027;48.576;9.180;2023-02-21T04:53:17;97275.34;;;2.52;97.13
11936;BME280;6027;48.576;9.180;2023-02-21T04:55:43;97280.59;;;2.41;96.78
11936;BME280;6027;48.576;9.180;2023-02-21T04:58:08;97273.59;;;2.41;98.20
11936;BME280;6027;48.576;9.180;2023-02-21T05:00:34;97275.84;;;2.46;97.63
11936;BME280;6027;48.576;9.180;2023-02-21T05:03:00;97269.31;;;2.40;97.49
11936;BME280;6027;48.576;9.180;2023-02-21T05:05:25;97268.84;;;2.35;97.76
11936;BME280;6027;48.576;9.180;2023-02-21T05:07:50;97267.91;;;2.25;98.67
11936;BME280;6027;48.576;9.180;2023-02-21T05:10:16;97259.59;;;2.20;98.70
11936;BME280;6027;48.576;9.180;2023-02-21T05:12:42;97263.41;;;2.16;99.32
11936;BME280;6027;48.576;9.180;2023-02-21T05:15:08;97264.22;;;2.17;98.12
11936;BME280;6027;48.576;9.180;2023-02-21T05:17:35;97264.72;;;1.99;100.00
11936;BME280;6027;48.576;9.180;2023-02-21T05:20:00;97250.75;;;1.89;100.00
11936;BME280;6027;48.576;9.180;2023-02-21T05:22:26;97266.19;;;1.92;100.00
11936;BME280;6027;48.576;9.180;2023-02-21T05:24:51;97262.34;;;1.96;100.00
11936;BME280;6027;48.576;9.180;2023-02-21T05:27:19;97267.00;;;1.82;100.00
11936;BME280;6027;48.576;9.180;2023-02-21T05:29:46;97271.72;;;1.77;100.00
11936;BME280;6027;48.576;9.180;2023-02-21T05:32:13;97268.50;;;1.62;100.00
11936;BME280;6027;48.576;9.180;2023-02-21T05:34:38;97256.66;;;1.58;100.00
11936;BME280;6027;48.576;9.180;2023-02-21T05:37:09;97263.31;;;1.62;100.00
11936;BME280;6027;48.576;9.180;2023-02-21T05:39:34;97271.97;;;1.62;100.00
11936;BME280;6027;48.576;9.180;2023-02-21T05:41:59;97268.59;;;1.38;100.00
11936;BME280;6027;48.576;9.180;2023-02-21T05:44:25;97286.28;;;1.34;100.00
11936;BME280;6027;48.576;9.180;2023-02-21T05:46:50;97279.50;;;1.32;100.00
11936;BME280;6027;48.576;9.180;2023-02-21T05:49:16;97274.53;;;1.29;100.00
11936;BME280;6027;48.576;9.180;2023-02-21T05:51:42;97285.69;;;1.42;100.00
11936;BME280;6027;48.576;9.180;2023-02-21T05:54:12;97275.59;;;1.37;100.00
11936;BME280;6027;48.576;9.180;2023-02-21T05:56:40;97273.25;;;1.34;100.00
11936;BME280;6027;48.576;9.180;2023-02-21T05:59:06;97278.69;;;1.43;100.00
11936;BME280;6027;48.576;9.180;2023-02-21T06:01:37;97275.97;;;1.44;100.00
11936;BME280;6027;48.576;9.180;2023-02-21T06:04:02;97284.03;;;1.41;100.00
11936;BME280;6027;48.576;9.180;2023-02-21T06:06:29;97273.91;;;1.25;100.00
11936;BME280;6027;48.576;9.180;2023-02-21T06:08:54;97273.63;;;1.06;100.00
11936;BME280;6027;48.576;9.180;2023-02-21T06:11:25;97281.22;;;1.09;100.00
11936;BME280;6027;48.576;9.180;2023-02-21T06:14:06;97274.34;;;1.08;100.00
11936;BME280;6027;48.576;9.180;2023-02-21T06:16:34;97267.88;;;0.90;100.00
11936;BME280;6027;48.576;9.180;2023-02-21T06:19:00;97266.09;;;0.90;100.00
11936;BME280;6027;48.576;9.180;2023-02-21T06:21:25;97267.56;;;0.94;100.00
11936;BME280;6027;48.576;9.180;2023-02-21T06:23:51;97276.66;;;1.00;100.00
11936;BME280;6027;48.576;9.180;2023-02-21T06:26:17;97271.03;;;1.17;100.00
11936;BME280;6027;48.576;9.180;2023-02-21T06:28:43;97270.91;;;1.19;100.00
11936;BME280;6027;48.576;9.180;2023-02-21T06:31:09;97274.63;;;1.27;100.00
11936;BME280;6027;48.576;9.180;2023-02-21T06:33:34;97267.41;;;1.31;100.00
11936;BME280;6027;48.576;9.180;2023-02-21T06:36:04;97270.47;;;1.36;100.00
11936;BME280;6027;48.576;9.180;2023-02-21T06:38:31;97275.13;;;1.44;100.00
11936;BME280;6027;48.576;9.180;2023-02-21T06:40:56;97266.47;;;1.32;100.00
11936;BME280;6027;48.576;9.180;2023-02-21T06:43:21;97267.59;;;1.17;100.00
11936;BME280;6027;48.576;9.180;2023-02-21T06:45:47;97274.41;;;1.30;100.00
11936;BME280;6027;48.576;9.180;2023-02-21T06:48:16;97276.09;;;1.43;100.00
11936;BME280;6027;48.576;9.180;2023-02-21T06:50:41;97275.13;;;1.44;100.00
11936;BME280;6027;48.576;9.180;2023-02-21T06:53:07;97271.56;;;1.33;100.00
11936;BME280;6027;48.576;9.180;2023-02-21T06:55:32;97274.41;;;1.42;100.00
11936;BME280;6027;48.576;9.180;2023-02-21T06:57:58;97257.22;;;1.39;100.00
11936;BME280;6027;48.576;9.180;2023-02-21T07:00:24;97269.75;;;1.23;100.00
11936;BME280;6027;48.576;9.180;2023-02-21T07:02:51;97268.91;;;1.22;100.00
11936;BME280;6027;48.576;9.180;2023-02-21T07:05:17;97265.72;;;1.19;100.00
11936;BME280;6027;48.576;9.180;2023-02-21T07:07:42;97267.03;;;1.24;100.00
11936;BME280;6027;48.576;9.180;2023-02-21T07:10:08;97269.41;;;1.27;100.00
11936;BME280;6027;48.576;9.180;2023-02-21T07:12:34;97261.09;;;1.22;100.00
11936;BME280;6027;48.576;9.180;2023-02-21T07:14:59;97265.88;;;1.28;100.00
11936;BME280;6027;48.576;9.180;2023-02-21T07:17:24;97272.69;;;1.18;100.00
11936;BME280;6027;48.576;9.180;2023-02-21T07:19:50;97266.31;;;1.22;100.00
11936;BME280;6027;48.576;9.180;2023-02-21T07:22:15;97268.72;;;1.36;100.00
11936;BME280;6027;48.576;9.180;2023-02-21T07:24:43;97264.94;;;1.41;100.00
11936;BME280;6027;48.576;9.180;2023-02-21T07:27:14;97272.53;;;1.55;100.00
11936;BME280;6027;48.576;9.180;2023-02-21T07:29:39;97272.44;;;1.67;100.00
11936;BME280;6027;48.576;9.180;2023-02-21T07:32:05;97258.31;;;1.59;100.00
11936;BME280;6027;48.576;9.180;2023-02-21T07:34:31;97264.84;;;1.64;100.00
11936;BME280;6027;48.576;9.180;2023-02-21T07:36:56;97273.63;;;1.74;100.00
11936;BME280;6027;48.576;9.180;2023-02-21T07:39:22;97268.41;;;1.74;100.00
11936;BME280;6027;48.576;9.180;2023-02-21T07:41:47;97269.59;;;1.93;100.00
11936;BME280;6027;48.576;9.180;2023-02-21T07:44:13;97267.59;;;2.07;100.00
11936;BME280;6027;48.576;9.180;2023-02-21T07:46:39;97264.59;;;2.23;100.00
11936;BME280;6027;48.576;9.180;2023-02-21T07:49:08;97268.00;;;2.35;100.00
11936;BME280;6027;48.576;9.180;2023-02-21T07:51:33;97268.44;;;2.51;100.00
11936;BME280;6027;48.576;9.180;2023-02-21T07:54:01;97273.06;;;2.59;100.00
11936;BME280;6027;48.576;9.180;2023-02-21T07:56:27;97268.38;;;2.73;100.00
11936;BME280;6027;48.576;9.180;2023-02-21T07:58:53;97278.41;;;2.89;100.00
11936;BME280;6027;48.576;9.180;2023-02-21T08:01:22;97281.34;;;3.07;100.00
11936;BME280;6027;48.576;9.180;2023-02-21T08:03:48;97270.31;;;3.24;100.00
11936;BME280;6027;48.576;9.180;2023-02-21T08:06:13;97271.16;;;3.45;100.00
11936;BME280;6027;48.576;9.180;2023-02-21T08:08:39;97272.09;;;3.65;100.00
11936;BME280;6027;48.576;9.180;2023-02-21T08:11:04;97268.94;;;3.71;100.00
11936;BME280;6027;48.576;9.180;2023-02-21T08:13:30;97268.59;;;3.86;100.00
11936;BME280;6027;48.576;9.180;2023-02-21T08:15:55;97264.56;;;4.12;100.00
11936;BME280;6027;48.576;9.180;2023-02-21T08:18:22;97260.09;;;4.33;98.47
11936;BME280;6027;48.576;9.180;2023-02-21T08:20:55;97263.50;;;4.24;97.38
11936;BME280;6027;48.576;9.180;2023-02-21T08:23:22;97259.69;;;4.38;96.26
11936;BME280;6027;48.576;9.180;2023-02-21T08:25:48;97263.16;;;4.48;96.89
11936;BME280;6027;48.576;9.180;2023-02-21T08:28:15;97258.22;;;4.64;94.61
11936;BME280;6027;48.576;9.180;2023-02-21T08:30:40;97260.84;;;4.55;95.07
11936;BME280;6027;48.576;9.180;2023-02-21T08:33:06;97257.25;;;4.65;95.71
11936;BME280;6027;48.576;9.180;2023-02-21T08:35:31;97262.66;;;4.83;95.25
11936;BME280;6027;48.576;9.180;2023-02-21T08:37:57;97258.38;;;4.82;93.02
11936;BME280;6027;48.576;9.180;2023-02-21T08:40:28;97264.31;;;4.84;92.12
11936;BME280;6027;48.576;9.180;2023-02-21T08:42:55;97269.31;;;4.97;93.06
11936;BME280;6027;48.576;9.180;2023-02-21T08:45:23;97265.72;;;5.17;91.59
11936;BME280;6027;48.576;9.180;2023-02-21T08:47:48;97274.38;;;5.56;90.72
11936;BME280;6027;48.576;9.180;2023-02-21T08:50:15;97275.25;;;5.84;90.77
11936;BME280;6027;48.576;9.180;2023-02-21T08:52:40;97273.50;;;6.21;92.00
11936;BME280;6027;48.576;9.180;2023-02-21T08:55:06;97281.78;;;6.54;89.86
11936;BME280;6027;48.576;9.180;2023-02-21T08:57:32;97272.00;;;6.91;88.59
11936;BME280;6027;48.576;9.180;2023-02-21T08:59:59;97276.72;;;7.23;85.96
11936;BME280;6027;48.576;9.180;2023-02-21T09:02:25;97288.66;;;7.53;83.46
11936;BME280;6027;48.576;9.180;2023-02-21T09:04:51;97283.69;;;7.68;78.41
11936;BME280;6027;48.576;9.180;2023-02-21T09:07:18;97267.03;;;7.68;78.35
11936;BME280;6027;48.576;9.180;2023-02-21T09:09:45;97276.50;;;7.78;76.13
11936;BME280;6027;48.576;9.180;2023-02-21T09:12:11;97278.34;;;7.86;76.17
11936;BME280;6027;48.576;9.180;2023-02-21T09:14:38;97275.09;;;7.92;76.72
11936;BME280;6027;48.576;9.180;2023-02-21T09:17:05;97279.91;;;7.96;75.79
11936;BME280;6027;48.576;9.180;2023-02-21T09:19:31;97277.88;;;8.16;76.71
11936;BME280;6027;48.576;9.180;2023-02-21T09:21:57;97269.47;;;8.21;76.72
11936;BME280;6027;48.576;9.180;2023-02-21T09:24:24;97263.41;;;8.28;75.17
11936;BME280;6027;48.576;9.180;2023-02-21T09:26:51;97266.34;;;8.51;74.95
11936;BME280;6027;48.576;9.180;2023-02-21T09:29:20;97266.06;;;8.71;72.54
11936;BME280;6027;48.576;9.180;2023-02-21T09:31:46;97262.28;;;8.73;70.43
11936;BME280;6027;48.576;9.180;2023-02-21T09:34:11;97257.34;;;8.78;70.52
11936;BME280;6027;48.576;9.180;2023-02-21T09:36:37;97254.75;;;8.94;70.67
11936;BME280;6027;48.576;9.180;2023-02-21T09:39:03;97261.69;;;9.12;70.20
11936;BME280;6027;48.576;9.180;2023-02-21T09:41:32;97255.59;;;9.27;67.26
11936;BME280;6027;48.576;9.180;2023-02-21T09:43:58;97250.13;;;9.45;65.98
11936;BME280;6027;48.576;9.180;2023-02-21T09:46:45;97247.47;;;9.69;65.69
11936;BME280;6027;48.576;9.180;2023-02-21T09:49:16;97244.50;;;9.81;65.02
11936;BME280;6027;48.576;9.180;2023-02-21T09:51:47;97250.75;;;9.96;64.89
11936;BME280;6027;48.576;9.180;2023-02-21T09:54:22;97236.47;;;10.13;65.09
11936;BME280;6027;48.576;9.180;2023-02-21T09:56:48;97237.59;;;10.35;64.72
11936;BME280;6027;48.576;9.180;2023-02-21T09:59:14;97241.16;;;10.50;64.27
11936;BME280;6027;48.576;9.180;2023-02-21T10:02:18;97241.72;;;10.68;61.66
11936;BME280;6027;48.576;9.180;2023-02-21T10:05:29;97235.78;;;10.66;60.32
11936;BME280;6027;48.576;9.180;2023-02-21T10:10:44;97239.69;;;11.01;59.45
11936;BME280;6027;48.576;9.180;2023-02-21T10:18:27;97244.63;;;11.50;58.38
11936;BME280;6027;48.576;9.180;2023-02-21T10:20:58;97241.25;;;11.56;58.76
11936;BME280;6027;48.576;9.180;2023-02-21T10:23:37;97245.19;;;11.60;58.54
11936;BME280;6027;48.576;9.180;2023-02-21T10:26:09;97231.81;;;11.76;57.58
11936;BME280;6027;48.576;9.180;2023-02-21T10:28:36;97231.38;;;11.88;56.62
11936;BME280;6027;48.576;9.180;2023-02-21T10:31:13;97226.63;;;11.98;56.01
11936;BME280;6027;48.576;9.180;2023-02-21T10:33:40;97235.88;;;11.87;57.51
11936;BME280;6027;48.576;9.180;2023-02-21T10:36:20;97233.78;;;12.12;56.02
11936;BME280;6027;48.576;9.180;2023-02-21T10:41:18;97231.59;;;12.30;53.38
11936;BME280;6027;48.576;9.180;2023-02-21T10:43:47;97224.06;;;12.34;53.43
11936;BME280;6027;48.576;9.180;2023-02-21T10:48:53;97227.50;;;12.64;52.81
11936;BME280;6027;48.576;9.180;2023-02-21T10:51:31;97224.16;;;12.76;53.15
11936;BME280;6027;48.576;9.180;2023-02-21T10:54:21;97220.59;;;12.84;52.75
11936;BME280;6027;48.576;9.180;2023-02-21T10:56:48;97225.22;;;12.97;54.02
11936;BME280;6027;48.576;9.180;2023-02-21T10:59:22;97218.69;;;12.99;54.14
11936;BME280;6027;48.576;9.180;2023-02-21T11:01:49;97213.50;;;13.12;53.82
11936;BME280;6027;48.576;9.180;2023-02-21T11:07:10;97208.03;;;13.35;50.38
11936;BME280;6027;48.576;9.180;2023-02-21T11:09:42;97202.97;;;13.40;49.83
11936;BME280;6027;48.576;9.180;2023-02-21T11:14:41;97194.81;;;13.48;49.89
11936;BME280;6027;48.576;9.180;2023-02-21T11:19:50;97197.56;;;13.55;49.70
11936;BME280;6027;48.576;9.180;2023-02-21T11:27:37;97179.84;;;13.97;47.46
11936;BME280;6027;48.576;9.180;2023-02-21T11:30:23;97172.53;;;14.12;43.38
11936;BME280;6027;48.576;9.180;2023-02-21T11:32:55;97177.28;;;14.16;44.26
11936;BME280;6027;48.576;9.180;2023-02-21T11:35:27;97171.78;;;14.25;43.92
11936;BME280;6027;48.576;9.180;2023-02-21T11:38:02;97166.97;;;14.07;44.67
11936;BME280;6027;48.576;9.180;2023-02-21T11:40:33;97158.34;;;14.05;43.13
11936;BME280;6027;48.576;9.180;2023-02-21T11:43:23;97159.25;;;14.18;44.93
11936;BME280;6027;48.576;9.180;2023-02-21T11:46:07;97156.88;;;14.37;41.83
11936;BME280;6027;48.576;9.180;2023-02-21T11:48:44;97151.19;;;14.46;43.86
11936;BME280;6027;48.576;9.180;2023-02-21T11:51:30;97142.50;;;14.31;43.40
11936;BME280;6027;48.576;9.180;2023-02-21T11:53:57;97138.28;;;14.43;42.76
11936;BME280;6027;48.576;9.180;2023-02-21T11:56:41;97140.78;;;14.65;42.02
11936;BME280;6027;48.576;9.180;2023-02-21T12:04:29;97122.19;;;14.78;41.32
11936;BME280;6027;48.576;9.180;2023-02-21T12:07:16;97112.56;;;14.90;42.07
11936;BME280;6027;48.576;9.180;2023-02-21T12:17:37;97098.22;;;14.91;41.50
11936;BME280;6027;48.576;9.180;2023-02-21T12:20:17;97086.91;;;15.02;42.49
11936;BME280;6027;48.576;9.180;2023-02-21T12:28:43;97074.63;;;15.34;41.11
11936;BME280;6027;48.576;9.180;2023-02-21T12:44:53;97046.38;;;15.84;39.83
11936;BME280;6027;48.576;9.180;2023-02-21T12:47:28;97046.94;;;16.00;39.18
11936;BME280;6027;48.576;9.180;2023-02-21T12:50:02;97040.75;;;16.06;38.81
11936;BME280;6027;48.576;9.180;2023-02-21T12:55:24;97019.41;;;15.99;41.73
11936;BME280;6027;48.576;9.180;2023-02-21T13:01:07;97017.34;;;16.01;40.79
11936;BME280;6027;48.576;9.180;2023-02-21T13:06:31;96993.00;;;16.22;40.51
11936;BME280;6027;48.576;9.180;2023-02-21T13:31:05;96945.06;;;16.34;40.28
11936;BME280;6027;48.576;9.180;2023-02-21T13:33:39;96939.72;;;16.34;40.78
11936;BME280;6027;48.576;9.180;2023-02-21T13:36:29;96942.38;;;16.59;41.51
11936;BME280;6027;48.576;9.180;2023-02-21T13:41:36;96940.28;;;16.36;40.18
11936;BME280;6027;48.576;9.180;2023-02-21T13:49:37;96925.03;;;16.43;39.37
11936;BME280;6027;48.576;9.180;2023-02-21T14:10:57;96893.50;;;16.27;40.18
11936;BME280;6027;48.576;9.180;2023-02-21T14:15:56;96895.63;;;16.18;40.63
11936;BME280;6027;48.576;9.180;2023-02-21T14:18:30;96885.66;;;16.32;40.56
11936;BME280;6027;48.576;9.180;2023-02-21T14:20:58;96884.47;;;16.28;40.29
11936;BME280;6027;48.576;9.180;2023-02-21T14:23:39;96882.00;;;16.27;39.75
11936;BME280;6027;48.576;9.180;2023-02-21T14:29:26;96876.97;;;16.37;40.58
11936;BME280;6027;48.576;9.180;2023-02-21T14:52:21;96846.66;;;16.24;41.58
11936;BME280;6027;48.576;9.180;2023-02-21T15:03:07;96845.41;;;16.27;41.99
11936;BME280;6027;48.576;9.180;2023-02-21T15:05:58;96838.00;;;16.29;42.28
11936;BME280;6027;48.576;9.180;2023-02-21T15:08:26;96842.91;;;16.32;41.50
11936;BME280;6027;48.576;9.180;2023-02-21T15:10:56;96844.34;;;16.35;42.09
11936;BME280;6027;48.576;9.180;2023-02-21T15:13:28;96839.72;;;16.42;41.75
11936;BME280;6027;48.576;9.180;2023-02-21T15:16:02;96839.63;;;16.30;42.01
11936;BME280;6027;48.576;9.180;2023-02-21T15:18:37;96834.56;;;16.22;42.00
11936;BME280;6027;48.576;9.180;2023-02-21T15:23:36;96838.38;;;16.33;42.86
11936;BME280;6027;48.576;9.180;2023-02-21T15:26:29;96836.81;;;16.25;43.01
11936;BME280;6027;48.576;9.180;2023-02-21T15:29:21;96826.22;;;16.12;43.33
11936;BME280;6027;48.576;9.180;2023-02-21T15:31:51;96828.47;;;16.15;43.93
11936;BME280;6027;48.576;9.180;2023-02-21T15:34:29;96822.53;;;16.13;43.48
11936;BME280;6027;48.576;9.180;2023-02-21T16:00:35;96811.47;;;15.78;43.80
11936;BME280;6027;48.576;9.180;2023-02-21T16:03:39;96818.97;;;15.63;43.94
11936;BME280;6027;48.576;9.180;2023-02-21T16:06:21;96816.16;;;15.51;44.32
11936;BME280;6027;48.576;9.180;2023-02-21T16:09:02;96811.72;;;15.38;44.43
11936;BME280;6027;48.576;9.180;2023-02-21T16:17:13;96816.47;;;15.30;44.68
11936;BME280;6027;48.576;9.180;2023-02-21T16:19:44;96812.38;;;15.34;44.66
11936;BME280;6027;48.576;9.180;2023-02-21T16:27:30;96808.91;;;15.27;44.86
11936;BME280;6027;48.576;9.180;2023-02-21T16:29:55;96806.72;;;15.10;45.19
11936;BME280;6027;48.576;9.180;2023-02-21T16:32:21;96805.28;;;15.14;45.10
11936;BME280;6027;48.576;9.180;2023-02-21T16:34:46;96806.94;;;15.02;45.11
11936;BME280;6027;48.576;9.180;2023-02-21T16:37:15;96805.38;;;14.95;45.29
11936;BME280;6027;48.576;9.180;2023-02-21T16:39:41;96808.84;;;14.95;45.70
11936;BME280;6027;48.576;9.180;2023-02-21T16:42:06;96806.81;;;14.84;45.79
11936;BME280;6027;48.576;9.180;2023-02-21T16:44:32;96805.84;;;14.78;45.76
11936;BME280;6027;48.576;9.180;2023-02-21T16:49:26;96808.09;;;14.75;46.26
11936;BME280;6027;48.576;9.180;2023-02-21T16:51:52;96805.44;;;14.75;46.45
11936;BME280;6027;48.576;9.180;2023-02-21T16:54:17;96807.09;;;14.63;46.55
11936;BME280;6027;48.576;9.180;2023-02-21T16:56:45;96808.56;;;14.59;46.41
11936;BME280;6027;48.576;9.180;2023-02-21T16:59:16;96806.72;;;14.52;46.58
11936;BME280;6027;48.576;9.180;2023-02-21T17:22:46;96801.84;;;13.77;49.65
11936;BME280;6027;48.576;9.180;2023-02-21T17:25:12;96818.63;;;13.64;49.77
11936;BME280;6027;48.576;9.180;2023-02-21T17:27:38;96814.47;;;13.48;50.23
11936;BME280;6027;48.576;9.180;2023-02-21T17:30:05;96814.28;;;13.43;51.15
11936;BME280;6027;48.576;9.180;2023-02-21T17:32:30;96819.78;;;13.42;50.57
11936;BME280;6027;48.576;9.180;2023-02-21T17:34:56;96823.88;;;13.38;51.00
11936;BME280;6027;48.576;9.180;2023-02-21T17:37:21;96822.19;;;13.24;51.66
11936;BME280;6027;48.576;9.180;2023-02-21T17:39:53;96820.28;;;13.11;52.48
11936;BME280;6027;48.576;9.180;2023-02-21T17:42:19;96822.31;;;13.02;53.02
11936;BME280;6027;48.576;9.180;2023-02-21T17:44:45;96825.06;;;12.81;53.17